Time;durP1;ratioP1;P1;durP2;ratioP2;P2;SDS_P1;SDS_P2;PMS_P1;PMS_P2;Temp;Humidity;BMP_temperature;BMP_pressure;BME280_temperature;BME280_humidity;BME280_pressure;Samples;Min_cycle;Max_cycle;Signal;HPM_P1;HPM_P2
2023/09/12 00:00:42;;;;;;;20.30;9.52;;;;;;;20.93;71.92;98489.22;4994837;28;20056;-89
2023/09/12 00:03:08;;;;;;;23.15;9.38;;;;;;;20.78;72.46;98470.75;5010772;28;20121;-89
2023/09/12 00:05:33;;;;;;;20.45;8.90;;;;;;;20.77;72.70;98479.22;5009342;28;20453;-89
2023/09/12 00:07:58;;;;;;;19.58;9.80;;;;;;;20.86;72.39;98477.28;5010924;28;20038;-89
2023/09/12 00:10:24;;;;;;;25.33;10.23;;;;;;;20.82;72.20;98465.47;4993779;28;20088;-89
2023/09/12 00:12:50;;;;;;;19.30;9.45;;;;;;;20.66;72.23;98451.63;5010278;28;20087;-89
2023/09/12 00:15:19;;;;;;;22.35;9.52;;;;;;;20.92;72.29;98487.63;4996965;28;20034;-89
2023/09/12 00:17:44;;;;;;;25.98;9.48;;;;;;;20.75;72.63;98471.41;4981955;28;20707;-89
2023/09/12 00:20:11;;;;;;;27.30;9.65;;;;;;;20.76;72.50;98466.78;5014822;28;20022;-89
2023/09/12 00:22:36;;;;;;;18.52;9.77;;;;;;;20.58;72.81;98463.31;5009059;28;20076;-89
2023/09/12 00:25:02;;;;;;;30.75;9.93;;;;;;;20.66;73.01;98467.91;5018235;28;20030;-89
2023/09/12 00:27:27;;;;;;;26.20;9.98;;;;;;;20.68;72.63;98457.56;5015300;28;20106;-89
2023/09/12 00:29:52;;;;;;;20.25;9.98;;;;;;;20.75;73.03;98481.47;5012381;28;20034;-89
2023/09/12 00:32:18;;;;;;;25.98;10.73;;;;;;;20.73;72.85;98472.84;4995674;28;20041;-89
2023/09/12 00:34:43;;;;;;;29.38;9.60;;;;;;;20.39;72.85;98414.09;4996851;28;20026;-89
2023/09/12 00:37:09;;;;;;;23.52;8.65;;;;;;;20.71;72.81;98470.47;5010234;28;20129;-89
2023/09/12 00:39:35;;;;;;;25.67;9.32;;;;;;;20.68;72.75;98465.69;4992590;28;20061;-89
2023/09/12 00:42:00;;;;;;;32.08;10.48;;;;;;;20.63;73.25;98473.19;5010401;28;20038;-89
2023/09/12 00:44:26;;;;;;;27.65;9.73;;;;;;;20.48;73.46;98460.94;4995661;28;20129;-89
2023/09/12 00:46:53;;;;;;;26.95;10.43;;;;;;;20.04;73.20;98401.66;4995702;28;20125;-89
2023/09/12 00:49:20;;;;;;;24.80;10.35;;;;;;;20.48;73.22;98454.72;5023870;28;20018;-89
2023/09/12 00:51:46;;;;;;;32.60;11.60;;;;;;;20.17;73.69;98420.47;5003023;28;20119;-89
2023/09/12 00:54:11;;;;;;;29.35;10.80;;;;;;;20.24;73.81;98449.03;4993683;28;20038;-89
2023/09/12 00:56:38;;;;;;;23.00;9.82;;;;;;;19.97;73.93;98417.59;5012451;28;20081;-89
2023/09/12 00:59:04;;;;;;;30.88;10.27;;;;;;;20.17;74.28;98463.03;4992408;28;20041;-89
2023/09/12 01:01:31;;;;;;;20.23;9.35;;;;;;;19.89;74.41;98430.06;5010059;28;20172;-89
2023/09/12 01:04:01;;;;;;;21.77;9.98;;;;;;;19.95;74.18;98445.03;5011679;28;20067;-89
2023/09/12 01:06:29;;;;;;;23.60;10.68;;;;;;;20.07;74.38;98452.53;5008320;28;20030;-89
2023/09/12 01:08:55;;;;;;;36.70;9.77;;;;;;;20.27;73.66;98443.75;4977789;28;21465;-89
2023/09/12 01:11:20;;;;;;;23.17;9.52;;;;;;;20.18;73.56;98443.72;5007966;28;20033;-89
2023/09/12 01:13:46;;;;;;;26.92;10.00;;;;;;;20.14;73.60;98447.41;4993297;28;20389;-89
2023/09/12 01:16:11;;;;;;;18.52;10.55;;;;;;;20.29;73.27;98443.44;4987568;28;20474;-89
2023/09/12 01:18:42;;;;;;;12.10;8.75;;;;;;;20.16;73.20;98447.88;4991630;28;20080;-89
2023/09/12 01:21:38;;;;;;;22.67;8.23;;;;;;;20.24;73.38;98455.25;4992619;28;20485;-89
2023/09/12 01:24:45;;;;;;;19.52;9.93;;;;;;;20.18;73.16;98451.09;5007608;28;20022;-89
2023/09/12 01:27:27;;;;;;;26.10;9.88;;;;;;;20.35;72.82;98470.06;5012899;28;20148;-89
2023/09/12 01:30:05;;;;;;;37.55;10.82;;;;;;;20.17;73.22;98454.91;5007070;28;20508;-89
2023/09/12 01:32:35;;;;;;;22.15;10.38;;;;;;;20.15;73.51;98473.41;4992954;28;20029;-89
2023/09/12 01:35:03;;;;;;;27.60;9.95;;;;;;;20.16;73.39;98472.25;4997058;28;20370;-89
2023/09/12 01:37:29;;;;;;;30.42;10.75;;;;;;;19.79;73.41;98395.16;5008049;28;20153;-89
2023/09/12 01:39:55;;;;;;;21.92;10.85;;;;;;;20.28;73.44;98466.22;4992643;28;20121;-89
2023/09/12 01:42:22;;;;;;;19.48;9.60;;;;;;;20.02;73.70;98453.47;5008693;28;20117;-89
2023/09/12 01:44:51;;;;;;;29.63;10.48;;;;;;;20.10;73.53;98463.50;5010938;28;21914;-89
2023/09/12 01:47:18;;;;;;;25.35;9.60;;;;;;;20.09;73.39;98453.78;5009357;28;20030;-89
2023/09/12 01:49:48;;;;;;;24.20;10.75;;;;;;;19.98;73.55;98443.59;4991849;28;20398;-89
2023/09/12 01:52:15;;;;;;;16.13;9.38;;;;;;;20.16;73.35;98464.94;5007322;28;20068;-89
2023/09/12 01:54:42;;;;;;;27.55;9.80;;;;;;;19.93;73.80;98455.38;4991884;28;20117;-89
2023/09/12 01:57:08;;;;;;;19.90;9.15;;;;;;;19.82;74.13;98443.28;4993785;28;20124;-89
2023/09/12 01:59:33;;;;;;;20.77;9.45;;;;;;;19.97;73.74;98455.53;4992082;28;20045;-89
2023/09/12 02:01:59;;;;;;;19.02;9.30;;;;;;;19.65;73.86;98418.91;5010174;28;20025;-88
2023/09/12 02:04:24;;;;;;;15.18;9.27;;;;;;;19.85;73.98;98455.38;4976311;28;20428;-88
2023/09/12 02:06:50;;;;;;;20.52;10.20;;;;;;;19.85;74.39;98460.81;4973361;28;20060;-88
2023/09/12 02:09:15;;;;;;;21.75;9.70;;;;;;;19.76;74.15;98439.13;5007531;28;20029;-88
2023/09/12 02:11:41;;;;;;;28.60;10.50;;;;;;;19.92;73.91;98451.06;4976984;28;20617;-88
2023/09/12 02:14:06;;;;;;;19.00;9.20;;;;;;;19.90;73.80;98466.03;5011823;28;20045;-88
2023/09/12 02:16:32;;;;;;;23.17;9.48;;;;;;;19.93;73.78;98465.41;5011522;28;20060;-88
2023/09/12 02:18:57;;;;;;;20.80;9.35;;;;;;;19.72;74.19;98454.44;4994882;28;20034;-88
2023/09/12 02:21:22;;;;;;;23.92;10.77;;;;;;;19.83;74.29;98460.31;4995149;28;20401;-88
2023/09/12 02:23:48;;;;;;;24.05;9.63;;;;;;;19.91;73.90;98465.75;5013829;28;20034;-88
2023/09/12 02:26:13;;;;;;;28.17;10.27;;;;;;;19.84;73.55;98467.31;5011354;28;20083;-88
2023/09/12 02:28:39;;;;;;;27.20;9.45;;;;;;;19.80;73.67;98461.75;4993268;28;20037;-88
2023/09/12 02:31:10;;;;;;;28.75;9.70;;;;;;;19.61;74.18;98447.72;4979780;28;20089;-88
2023/09/12 02:33:35;;;;;;;21.35;9.43;;;;;;;19.78;73.81;98469.41;5006148;28;20075;-88
2023/09/12 02:36:01;;;;;;;24.02;10.38;;;;;;;19.41;74.30;98419.34;4999227;28;20034;-88
2023/09/12 02:38:26;;;;;;;20.15;9.93;;;;;;;19.46;73.92;98428.44;4975657;28;20513;-88
2023/09/12 02:40:52;;;;;;;20.38;9.48;;;;;;;19.72;73.77;98462.56;5012540;28;20045;-89
2023/09/12 02:43:17;;;;;;;21.67;9.18;;;;;;;19.56;73.92;98433.53;4996762;28;20030;-89
2023/09/12 02:45:42;;;;;;;25.00;10.40;;;;;;;19.55;74.10;98446.25;4990725;28;20081;-89
2023/09/12 02:48:08;;;;;;;23.15;9.68;;;;;;;19.50;74.50;98443.72;5007545;28;20038;-89
2023/09/12 02:50:33;;;;;;;20.90;10.23;;;;;;;19.63;74.22;98463.66;4975007;28;20037;-89
2023/09/12 02:52:58;;;;;;;19.55;10.88;;;;;;;19.24;74.66;98426.59;4992399;28;20087;-89
2023/09/12 02:55:24;;;;;;;16.52;10.40;;;;;;;19.52;75.07;98448.81;4977116;28;20748;-89
2023/09/12 02:57:49;;;;;;;22.95;10.50;;;;;;;19.46;75.24;98472.53;4975273;28;20182;-89
2023/09/12 03:00:14;;;;;;;22.70;10.18;;;;;;;19.39;75.63;98461.38;4990962;28;20033;-89
2023/09/12 03:02:40;;;;;;;20.23;10.73;;;;;;;19.52;75.22;98473.19;4990530;28;20030;-89
2023/09/12 03:05:05;;;;;;;28.27;11.95;;;;;;;19.53;75.13;98469.38;4990828;28;20041;-89
2023/09/12 03:07:31;;;;;;;22.85;11.10;;;;;;;19.53;74.86;98472.06;4992670;28;20049;-89
2023/09/12 03:09:56;;;;;;;21.40;11.30;;;;;;;19.08;74.90;98411.91;5007647;28;20054;-89
2023/09/12 03:12:22;;;;;;;25.55;10.43;;;;;;;19.42;75.06;98466.94;5007535;28;20033;-89
2023/09/12 03:14:47;;;;;;;20.80;10.88;;;;;;;19.54;74.88;98470.94;4977005;28;20113;-89
2023/09/12 03:17:15;;;;;;;24.23;10.90;;;;;;;19.28;75.16;98476.28;5008456;28;20026;-89
2023/09/12 03:19:41;;;;;;;24.02;10.98;;;;;;;19.28;75.60;98476.28;4993624;28;20034;-85
2023/09/12 03:22:06;;;;;;;25.08;10.15;;;;;;;19.22;75.77;98456.66;5003016;28;20044;-85
2023/09/12 03:24:31;;;;;;;29.77;11.70;;;;;;;19.13;75.87;98482.88;5004974;28;20068;-85
2023/09/12 03:26:57;;;;;;;20.13;9.93;;;;;;;19.22;75.64;98462.06;5003218;28;20034;-85
2023/09/12 03:29:23;;;;;;;17.75;9.70;;;;;;;19.21;75.58;98471.31;5004900;28;20107;-85
2023/09/12 03:31:48;;;;;;;15.75;9.43;;;;;;;19.32;74.92;98469.91;4987794;28;20037;-85
2023/09/12 03:34:13;;;;;;;20.48;10.00;;;;;;;19.34;75.02;98486.69;4987471;28;20041;-86
2023/09/12 03:36:39;;;;;;;17.80;9.75;;;;;;;19.24;75.00;98469.91;4991809;28;20022;-85
2023/09/12 03:39:08;;;;;;;26.92;11.23;;;;;;;19.43;74.83;98484.78;4985887;28;20428;-85
2023/09/12 03:41:34;;;;;;;21.42;10.38;;;;;;;19.43;74.99;98479.38;5002687;28;20034;-85
2023/09/12 03:44:00;;;;;;;22.98;10.43;;;;;;;19.35;75.10;98480.13;5001250;28;20046;-85
2023/09/12 03:46:25;;;;;;;28.05;8.80;;;;;;;19.07;75.28;98459.00;5001262;28;20033;-85
2023/09/12 03:48:50;;;;;;;27.77;10.68;;;;;;;19.13;75.39;98480.19;4984557;28;20099;-85
2023/09/12 03:51:16;;;;;;;25.70;9.73;;;;;;;19.18;75.34;98496.28;5002955;28;20049;-86
2023/09/12 03:53:41;;;;;;;22.15;10.20;;;;;;;19.14;75.41;98473.69;4983466;28;20034;-85
2023/09/12 03:56:08;;;;;;;22.52;9.90;;;;;;;19.32;75.12;98498.88;4986265;28;20025;-85
2023/09/12 03:58:33;;;;;;;22.73;11.02;;;;;;;19.18;75.16;98490.88;5000255;28;20030;-85
2023/09/12 04:00:59;;;;;;;15.30;10.38;;;;;;;19.19;75.34;98488.97;5002104;28;20034;-85
2023/09/12 04:03:24;;;;;;;22.30;10.65;;;;;;;19.02;75.25;98468.06;4999033;28;20037;-85
2023/09/12 04:05:51;;;;;;;25.85;9.82;;;;;;;19.24;75.21;98491.53;5000186;28;20116;-85
2023/09/12 04:08:16;;;;;;;18.13;10.45;;;;;;;19.07;75.55;98486.84;4999436;28;20042;-84
2023/09/12 04:10:43;;;;;;;32.38;11.40;;;;;;;19.24;75.17;98489.63;4983936;28;20026;-84
2023/09/12 04:13:08;;;;;;;28.75;10.25;;;;;;;19.23;74.95;98496.16;5004105;28;20046;-86
2023/09/12 04:15:34;;;;;;;15.55;9.25;;;;;;;19.12;75.63;98489.44;5003299;28;20370;-85
2023/09/12 04:17:59;;;;;;;19.63;10.50;;;;;;;19.01;76.49;98495.41;4991525;28;20080;-85
2023/09/12 04:20:24;;;;;;;18.30;10.38;;;;;;;18.90;76.11;98462.44;4987851;28;20121;-85
2023/09/12 04:22:50;;;;;;;25.60;10.32;;;;;;;18.90;76.45;98486.78;4972243;28;20030;-85
2023/09/12 04:25:15;;;;;;;20.20;10.55;;;;;;;19.01;76.47;98503.53;4990127;28;20105;-84
2023/09/12 04:27:41;;;;;;;17.95;11.30;;;;;;;19.05;76.33;98499.91;5015188;28;20029;-84
2023/09/12 04:30:08;;;;;;;24.58;11.43;;;;;;;18.96;76.66;98488.22;5008195;28;20072;-84
2023/09/12 04:32:34;;;;;;;22.58;11.45;;;;;;;19.04;76.42;98514.53;5008850;28;20030;-84
2023/09/12 04:35:00;;;;;;;19.05;11.57;;;;;;;18.88;76.58;98499.81;5010150;28;20621;-85
2023/09/12 04:37:25;;;;;;;22.55;11.77;;;;;;;18.84;77.73;98515.06;5004950;28;20041;-85
2023/09/12 04:39:50;;;;;;;24.90;11.75;;;;;;;18.98;76.87;98515.75;4976501;28;20429;-85
2023/09/12 04:42:16;;;;;;;19.35;10.07;;;;;;;18.81;76.56;98515.69;5006917;28;20042;-85
2023/09/12 04:44:42;;;;;;;17.48;10.23;;;;;;;18.28;78.00;98495.91;4988069;28;20113;-85
2023/09/12 04:47:08;;;;;;;28.92;11.82;;;;;;;18.22;78.12;98521.44;5023421;28;20091;-84
2023/09/12 04:49:33;;;;;;;13.00;10.15;;;;;;;18.63;77.12;98508.59;5004229;28;20483;-84
2023/09/12 04:51:59;;;;;;;23.67;11.18;;;;;;;18.35;77.31;98512.47;5007892;28;20092;-85
2023/09/12 04:54:25;;;;;;;18.85;10.90;;;;;;;18.94;76.74;98531.03;5001855;28;20022;-85
2023/09/12 04:56:50;;;;;;;24.13;10.45;;;;;;;18.88;76.01;98521.44;5006193;28;20022;-84
2023/09/12 04:59:16;;;;;;;15.90;10.07;;;;;;;19.05;76.19;98545.06;4991667;28;20034;-84
2023/09/12 05:01:44;;;;;;;15.98;10.05;;;;;;;18.84;75.95;98504.25;4985087;28;20030;-86
2023/09/12 05:04:09;;;;;;;15.80;10.25;;;;;;;18.97;76.17;98530.41;5021628;28;20034;-85
2023/09/12 05:06:35;;;;;;;19.55;9.90;;;;;;;18.94;76.03;98528.31;4969933;28;20136;-85
2023/09/12 05:09:00;;;;;;;14.05;10.07;;;;;;;18.98;76.07;98525.81;5009001;28;20046;-85
2023/09/12 05:11:29;;;;;;;15.27;10.30;;;;;;;18.91;76.57;98520.84;5005953;28;20033;-84
2023/09/12 05:13:55;;;;;;;17.30;10.32;;;;;;;18.95;76.57;98543.47;5001735;28;20065;-85
2023/09/12 05:16:20;;;;;;;22.90;11.43;;;;;;;19.00;76.73;98543.31;5007254;28;20026;-85
2023/09/12 05:18:45;;;;;;;16.88;10.65;;;;;;;18.79;77.28;98539.53;5004983;28;20033;-84
2023/09/12 05:21:14;;;;;;;16.52;10.82;;;;;;;18.81;77.10;98540.00;5003692;28;20124;-84
2023/09/12 05:23:39;;;;;;;20.20;10.23;;;;;;;18.94;76.73;98536.44;5006751;28;20048;-85
2023/09/12 05:26:05;;;;;;;14.05;9.93;;;;;;;18.93;76.90;98550.28;4989255;28;20039;-85
2023/09/12 05:28:30;;;;;;;22.33;10.88;;;;;;;18.68;77.08;98514.66;4994183;28;20117;-85
2023/09/12 05:30:56;;;;;;;17.58;10.98;;;;;;;18.85;77.61;98559.94;5012939;28;20043;-85
2023/09/12 05:33:21;;;;;;;18.77;10.68;;;;;;;18.95;77.62;98554.28;4992885;28;20466;-85
2023/09/12 05:35:46;;;;;;;28.67;12.23;;;;;;;18.91;77.62;98553.31;5012952;28;20030;-85
2023/09/12 05:38:12;;;;;;;16.20;11.02;;;;;;;18.78;78.16;98532.53;4978544;28;20045;-85
2023/09/12 05:40:40;;;;;;;19.85;11.07;;;;;;;18.95;77.75;98551.56;4979451;28;20124;-85
2023/09/12 05:43:06;;;;;;;23.63;11.90;;;;;;;19.00;78.03;98558.75;4997078;28;20049;-84
2023/09/12 05:45:32;;;;;;;15.63;10.57;;;;;;;19.00;78.36;98564.16;5022756;28;20041;-84
2023/09/12 05:47:58;;;;;;;14.95;10.48;;;;;;;19.07;78.22;98567.22;5010413;28;20448;-85
2023/09/12 05:50:24;;;;;;;26.33;11.70;;;;;;;19.04;78.74;98563.25;5010149;28;20030;-84
2023/09/12 05:52:49;;;;;;;18.38;10.95;;;;;;;18.96;78.71;98555.06;5007326;28;20034;-84
2023/09/12 05:55:14;;;;;;;19.20;12.38;;;;;;;18.99;78.91;98567.97;4979131;28;20033;-85
2023/09/12 05:57:40;;;;;;;17.58;11.65;;;;;;;19.01;78.82;98568.44;5011886;28;20703;-84
2023/09/12 06:00:09;;;;;;;20.73;13.73;;;;;;;19.03;79.86;98571.66;5005357;28;20038;-84
2023/09/12 06:02:35;;;;;;;20.45;12.23;;;;;;;19.18;78.63;98569.34;5006271;28;20030;-85
2023/09/12 06:05:00;;;;;;;22.23;12.65;;;;;;;19.18;79.42;98582.06;5009009;28;20056;-84
2023/09/12 06:07:26;;;;;;;15.73;12.23;;;;;;;19.28;78.40;98566.38;5010209;28;20038;-84
2023/09/12 06:09:51;;;;;;;16.38;13.10;;;;;;;19.20;79.51;98564.41;5010394;28;20038;-84
2023/09/12 06:12:16;;;;;;;19.95;11.18;;;;;;;19.40;77.70;98561.19;4993163;28;20076;-84
2023/09/12 06:14:42;;;;;;;17.40;12.40;;;;;;;19.47;78.05;98576.19;4977327;28;20524;-84
2023/09/12 06:17:07;;;;;;;25.10;14.10;;;;;;;19.19;80.20;98564.75;4991653;28;20041;-84
2023/09/12 06:19:33;;;;;;;24.98;12.20;;;;;;;19.43;78.34;98568.72;4994210;28;20030;-84
2023/09/12 06:21:58;;;;;;;24.52;15.05;;;;;;;19.46;78.75;98585.44;5010235;28;20034;-84
2023/09/12 06:24:23;;;;;;;35.90;18.52;;;;;;;19.12;84.12;98558.97;4977934;28;20064;-85
2023/09/12 06:26:49;;;;;;;24.77;16.35;;;;;;;19.30;83.06;98566.88;4993877;28;20034;-84
2023/09/12 06:29:15;;;;;;;22.88;13.00;;;;;;;19.26;80.82;98559.69;5010084;28;20045;-84
2023/09/12 06:31:41;;;;;;;30.25;19.45;;;;;;;19.20;86.12;98583.34;5006825;28;20394;-84
2023/09/12 06:34:08;;;;;;;20.00;13.85;;;;;;;19.25;81.13;98563.50;5007358;28;20037;-84
2023/09/12 06:36:33;;;;;;;15.88;11.35;;;;;;;19.55;78.91;98583.56;4978022;28;20022;-85
2023/09/12 06:39:00;;;;;;;41.10;19.50;;;;;;;19.51;83.40;98572.53;4978162;28;20097;-85
2023/09/12 06:41:26;;;;;;;30.27;21.05;;;;;;;19.14;87.07;98562.16;5007550;28;20026;-84
2023/09/12 06:43:52;;;;;;;29.13;17.67;;;;;;;19.27;85.71;98563.97;5005240;28;20034;-84
2023/09/12 06:46:18;;;;;;;27.27;21.20;;;;;;;19.14;87.93;98572.97;5002003;28;20022;-84
2023/09/12 06:48:46;;;;;;;30.13;20.42;;;;;;;19.18;87.95;98574.75;5009756;28;20034;-84
2023/09/12 06:51:14;;;;;;;27.85;18.65;;;;;;;19.35;84.62;98564.03;4993193;28;20037;-85
2023/09/12 06:53:40;;;;;;;27.48;18.77;;;;;;;19.31;87.21;98559.53;4991953;28;20026;-84
2023/09/12 06:56:06;;;;;;;28.98;19.63;;;;;;;19.48;87.40;98572.38;5005759;28;20113;-84
2023/09/12 06:58:34;;;;;;;20.48;13.00;;;;;;;19.75;80.38;98550.47;5007079;28;20026;-84
2023/09/12 07:01:07;;;;;;;31.10;20.90;;;;;;;19.69;85.91;98578.81;5018587;28;20025;-85
2023/09/12 07:03:33;;;;;;;31.60;22.65;;;;;;;19.57;86.62;98575.94;5009043;28;20022;-85
2023/09/12 07:05:59;;;;;;;33.67;24.63;;;;;;;19.54;86.84;98563.81;5014757;28;20061;-85
2023/09/12 07:08:25;;;;;;;33.10;23.67;;;;;;;19.56;87.18;98568.91;4999157;28;20029;-83
2023/09/12 07:10:50;;;;;;;35.92;23.95;;;;;;;19.44;88.00;98561.38;5012269;28;20064;-84
2023/09/12 07:13:16;;;;;;;33.00;23.63;;;;;;;19.36;88.55;98535.88;5008532;28;20099;-84
2023/09/12 07:15:41;;;;;;;29.95;23.60;;;;;;;19.44;88.20;98526.16;5012332;28;20049;-84
2023/09/12 07:18:09;;;;;;;36.55;25.30;;;;;;;19.25;88.47;98521.00;4999070;28;20700;-84
2023/09/12 07:20:34;;;;;;;36.63;26.05;;;;;;;19.31;88.46;98524.34;5006212;28;20030;-83
2023/09/12 07:23:00;;;;;;;34.88;26.75;;;;;;;19.20;88.55;98523.81;5023330;28;20087;-84
2023/09/12 07:25:25;;;;;;;45.05;28.88;;;;;;;19.11;89.05;98512.16;5009885;28;20034;-83
2023/09/12 07:27:51;;;;;;;34.67;27.67;;;;;;;19.17;88.87;98508.22;4976543;28;20034;-83
2023/09/12 07:30:18;;;;;;;34.42;28.05;;;;;;;19.22;89.25;98513.50;5012630;28;20515;-84
2023/09/12 07:32:43;;;;;;;37.75;29.30;;;;;;;19.19;89.46;98524.94;5018126;28;20038;-84
2023/09/12 07:35:09;;;;;;;32.75;26.35;;;;;;;19.41;87.72;98522.22;5010799;28;20021;-84
2023/09/12 07:37:34;;;;;;;33.05;23.45;;;;;;;19.94;85.05;98530.13;5016970;28;20036;-84
2023/09/12 07:40:09;;;;;;;24.15;17.52;;;;;;;20.21;82.13;98558.06;5023066;28;20168;-85
2023/09/12 07:42:35;;;;;;;23.42;14.52;;;;;;;20.36;80.78;98547.56;5008676;28;20367;-84
2023/09/12 07:45:03;;;;;;;22.08;18.33;;;;;;;20.30;82.40;98551.53;5007320;28;20052;-84
2023/09/12 07:47:28;;;;;;;33.63;24.08;;;;;;;20.01;84.89;98559.44;4991297;28;20113;-84
2023/09/12 07:49:54;;;;;;;33.85;26.45;;;;;;;19.99;84.89;98559.78;5012230;28;20129;-84
2023/09/12 07:52:19;;;;;;;31.50;24.80;;;;;;;19.88;85.41;98547.63;4999373;28;20041;-84
2023/09/12 07:54:44;;;;;;;26.95;21.40;;;;;;;20.01;84.12;98559.44;5003034;28;20030;-84
2023/09/12 07:57:13;;;;;;;26.15;18.08;;;;;;;20.02;83.26;98555.63;4990198;28;20088;-84
2023/09/12 07:59:38;;;;;;;28.15;23.88;;;;;;;19.93;84.47;98562.94;4994590;28;20037;-84
2023/09/12 08:02:03;;;;;;;34.70;23.25;;;;;;;19.85;84.87;98555.59;4999287;28;20035;-84
2023/09/12 08:04:29;;;;;;;27.73;22.60;;;;;;;19.83;85.69;98568.69;5013190;28;20401;-83
2023/09/12 08:06:54;;;;;;;29.52;19.60;;;;;;;19.86;84.34;98557.19;5007217;28;20029;-83
2023/09/12 08:09:20;;;;;;;30.38;19.88;;;;;;;19.71;85.46;98561.16;5007699;28;20030;-84
2023/09/12 08:11:45;;;;;;;22.77;18.65;;;;;;;19.86;84.70;98568.03;4993162;28;20061;-84
2023/09/12 08:14:10;;;;;;;20.50;16.05;;;;;;;19.86;84.67;98549.06;5012137;28;20030;-84
2023/09/12 08:16:36;;;;;;;22.85;15.25;;;;;;;20.03;83.54;98563.44;5013917;28;20033;-84
2023/09/12 08:19:01;;;;;;;19.50;13.35;;;;;;;20.00;83.41;98545.13;5011597;28;20030;-84
2023/09/12 08:21:27;;;;;;;23.17;13.38;;;;;;;19.97;81.63;98531.41;4996910;28;20112;-84
2023/09/12 08:23:52;;;;;;;22.92;12.40;;;;;;;20.18;82.86;98544.00;5011005;28;20098;-84
2023/09/12 08:26:17;;;;;;;12.85;11.43;;;;;;;20.31;81.54;98530.66;4996311;28;20025;-85
2023/09/12 08:28:43;;;;;;;14.57;11.20;;;;;;;20.35;80.72;98518.06;4994642;28;20500;-84
2023/09/12 08:31:08;;;;;;;17.42;11.13;;;;;;;20.55;80.79;98523.59;4994640;28;20100;-84
2023/09/12 08:33:33;;;;;;;17.33;11.60;;;;;;;20.64;79.35;98516.25;5009652;28;20026;-84
2023/09/12 08:35:59;;;;;;;17.70;10.95;;;;;;;20.77;79.15;98511.78;4990612;28;20076;-82
2023/09/12 08:38:24;;;;;;;14.38;11.40;;;;;;;20.89;78.37;98520.84;4992826;28;20045;-83
2023/09/12 08:40:51;;;;;;;17.05;11.32;;;;;;;21.03;78.17;98522.56;4993494;28;20038;-83
2023/09/12 08:43:17;;;;;;;15.50;10.77;;;;;;;21.18;78.43;98520.16;5011443;28;20041;-84
2023/09/12 08:45:46;;;;;;;14.57;10.73;;;;;;;21.28;77.22;98513.53;5007880;28;20389;-84
2023/09/12 08:48:12;;;;;;;13.43;11.35;;;;;;;21.39;77.13;98531.06;5017088;28;20076;-83
2023/09/12 08:50:38;;;;;;;15.50;11.00;;;;;;;21.47;77.61;98530.25;5005446;28;20369;-84
2023/09/12 08:53:03;;;;;;;16.35;11.68;;;;;;;21.51;76.37;98512.19;5011913;28;20045;-84
2023/09/12 08:55:29;;;;;;;17.70;10.95;;;;;;;21.82;76.98;98539.00;4987869;28;20080;-84
2023/09/12 08:57:57;;;;;;;14.95;11.07;;;;;;;21.95;76.00;98552.34;5009834;28;20032;-84
2023/09/12 09:00:24;;;;;;;12.65;9.82;;;;;;;22.19;74.50;98563.38;4994514;28;20085;-85
2023/09/12 09:02:50;;;;;;;12.00;9.48;;;;;;;22.29;74.36;98573.88;5011603;28;20034;-84
2023/09/12 09:05:17;;;;;;;13.40;10.30;;;;;;;22.31;73.86;98562.66;5011405;28;20034;-85
2023/09/12 09:07:43;;;;;;;13.63;9.05;;;;;;;22.42;73.08;98571.22;4992537;28;20391;-84
2023/09/12 09:10:19;;;;;;;10.45;9.35;;;;;;;22.52;72.52;98558.00;5010442;28;20040;-84
2023/09/12 09:12:46;;;;;;;14.77;9.25;;;;;;;22.61;72.25;98571.56;5012439;28;20030;-84
2023/09/12 09:15:28;;;;;;;17.65;9.57;;;;;;;22.73;72.80;98575.16;5011333;28;20116;-84
2023/09/12 09:17:55;;;;;;;12.65;9.40;;;;;;;22.73;71.08;98575.16;5011632;28;20148;-84
2023/09/12 09:20:32;;;;;;;15.27;9.80;;;;;;;22.83;71.59;98572.00;4992786;28;20134;-84
2023/09/12 09:23:05;;;;;;;15.18;9.68;;;;;;;22.96;72.52;98576.34;5011450;28;20699;-84
2023/09/12 09:25:36;;;;;;;14.60;9.73;;;;;;;23.06;72.34;98577.88;5003217;28;20046;-84
2023/09/12 09:28:03;;;;;;;12.90;9.55;;;;;;;23.09;73.16;98571.72;5004882;28;20388;-84
2023/09/12 09:30:50;;;;;;;14.63;9.75;;;;;;;23.07;72.56;98553.03;5005735;28;20041;-84
2023/09/12 09:33:16;;;;;;;12.55;10.38;;;;;;;23.30;72.02;98575.19;5003574;28;20026;-84
2023/09/12 09:35:42;;;;;;;14.68;8.52;;;;;;;23.37;71.33;98574.69;5009564;28;20032;-84
2023/09/12 09:38:08;;;;;;;17.60;9.68;;;;;;;23.52;70.01;98572.09;5007862;28;20022;-85
2023/09/12 09:40:35;;;;;;;11.23;8.73;;;;;;;23.43;71.63;98565.13;5005978;28;20030;-84
2023/09/12 09:43:03;;;;;;;14.15;8.38;;;;;;;23.59;70.49;98571.53;5010695;28;20038;-85
2023/09/12 09:45:29;;;;;;;9.98;8.18;;;;;;;23.64;70.04;98569.34;5011234;28;20393;-84
2023/09/12 09:48:21;;;;;;;13.73;9.18;;;;;;;23.81;69.87;98582.75;5007831;28;20448;-84
2023/09/12 09:50:47;;;;;;;16.10;10.15;;;;;;;23.82;70.27;98572.66;5002207;28;20037;-84
2023/09/12 09:53:12;;;;;;;14.23;8.13;;;;;;;23.81;68.83;98576.50;5010500;28;20033;-84
2023/09/12 09:55:38;;;;;;;12.23;9.13;;;;;;;23.95;68.78;98567.97;4993204;28;20471;-85
2023/09/12 09:58:06;;;;;;;12.73;8.43;;;;;;;23.96;68.75;98583.22;5009449;28;20544;-84
2023/09/12 10:00:36;;;;;;;8.23;7.35;;;;;;;23.88;68.92;98578.66;5007971;28;20646;-85
2023/09/12 10:03:06;;;;;;;17.63;8.70;;;;;;;23.99;69.08;98564.22;5008874;28;20030;-84
2023/09/12 10:05:37;;;;;;;19.25;9.15;;;;;;;24.00;69.75;98562.28;4995767;28;20029;-85
2023/09/12 10:08:06;;;;;;;20.30;9.57;;;;;;;23.93;68.96;98567.53;4995709;28;20022;-85
2023/09/12 10:10:34;;;;;;;13.05;9.60;;;;;;;23.93;71.34;98568.31;5009279;28;20036;-85
2023/09/12 10:13:03;;;;;;;18.15;9.32;;;;;;;23.84;70.05;98563.00;4990637;28;20084;-85
2023/09/12 10:15:30;;;;;;;8.93;8.15;;;;;;;23.72;69.92;98565.72;5009880;28;20033;-85
2023/09/12 10:18:00;;;;;;;16.80;10.10;;;;;;;23.73;73.54;98571.97;5010826;28;20539;-85
2023/09/12 10:20:50;;;;;;;20.77;11.75;;;;;;;23.65;72.65;98570.16;4993068;28;20036;-85
2023/09/12 10:23:23;;;;;;;14.57;9.75;;;;;;;23.49;74.27;98555.59;5004010;28;20381;-85
2023/09/12 10:25:49;;;;;;;15.85;10.90;;;;;;;23.24;73.66;98538.41;5007100;28;20529;-85
2023/09/12 10:28:14;;;;;;;12.40;9.57;;;;;;;23.20;73.95;98553.06;5015852;28;20117;-85
2023/09/12 10:30:41;;;;;;;15.10;10.20;;;;;;;22.98;74.15;98554.22;5006301;28;20037;-85
2023/09/12 10:33:08;;;;;;;14.32;10.73;;;;;;;22.81;75.62;98554.41;4992172;28;20092;-85
2023/09/12 10:35:35;;;;;;;16.58;12.13;;;;;;;22.75;74.71;98544.88;4980499;28;20084;-85
2023/09/12 10:38:05;;;;;;;12.77;9.93;;;;;;;22.68;74.95;98528.28;4993691;28;20498;-85
2023/09/12 10:40:34;;;;;;;15.43;9.40;;;;;;;22.97;73.63;98533.59;4993289;28;20037;-85
2023/09/12 10:43:03;;;;;;;19.00;11.18;;;;;;;22.80;74.56;98541.94;5002738;28;20026;-84
2023/09/12 10:45:31;;;;;;;14.38;11.25;;;;;;;22.68;74.95;98545.41;5002294;28;20030;-84
2023/09/12 10:47:56;;;;;;;18.40;12.15;;;;;;;22.61;76.28;98557.97;5009986;28;20494;-84
2023/09/12 10:50:21;;;;;;;21.42;11.48;;;;;;;22.74;74.58;98546.78;5010181;28;20036;-85
2023/09/12 10:52:47;;;;;;;18.13;10.70;;;;;;;22.82;74.59;98553.28;5010453;28;20026;-84
2023/09/12 10:55:20;;;;;;;17.48;10.88;;;;;;;23.09;73.87;98541.78;5011036;28;20030;-85
2023/09/12 10:58:05;;;;;;;18.45;11.02;;;;;;;22.98;75.00;98560.47;5009521;28;20080;-84
2023/09/12 11:00:34;;;;;;;15.60;11.13;;;;;;;22.91;74.26;98564.91;4993245;28;20400;-85
2023/09/12 11:03:28;;;;;;;15.93;11.40;;;;;;;23.07;73.69;98565.84;5012425;28;20105;-85
2023/09/12 11:05:55;;;;;;;17.38;10.95;;;;;;;23.08;74.71;98535.56;5012001;28;20048;-84
2023/09/12 11:08:21;;;;;;;22.67;11.57;;;;;;;23.11;72.32;98525.91;5010106;28;20029;-84
2023/09/12 11:11:19;;;;;;;19.73;11.57;;;;;;;23.58;72.33;98556.28;5010634;28;20038;-85
2023/09/12 11:13:45;;;;;;;15.18;9.48;;;;;;;24.07;70.97;98538.00;5004792;28;20481;-85
2023/09/12 11:16:17;;;;;;;14.18;9.45;;;;;;;24.13;70.98;98542.06;5009559;28;20033;-85
2023/09/12 11:19:15;;;;;;;99.13;14.50;;;;;;;24.45;70.41;98560.16;5009536;28;20028;-85